الصفحة الرئيسية
METAR-TAF:

METAR-TAF

مطار :

تيجوسيجالبا, هندوراس

دائرة عرض: 14-03N, خط طول: 087-13W, ارتفاع: 994 متر

مراقبة الطقس الحالي

تاريخ ووقت الإصدار 52 دقيقة قبل الساعة 12:00UTC
ريح 6 عقدة من الشمال
درجة الحرارة 16°درجة مئوية
الرطوبة 94%
ضغط 1020 hPa
الرؤية 10 كم أو أكثر
غيوم قليلة على ارتفاع 1200 قدم
غيوم مفككة على ارتفاع 2500 قدم

METAR: MHTG 201200Z 01006KT 9999 FEW012 BKN025 16/15 Q1020 A3012 NOSIG

زمن: 06:52 (12:52 UTC)

توقعات

تاريخ ووقت الإصدار 3ساعات و 27 دقيقة قبل الساعة 09:25UTC
التوقعات صالحة من20 الساعة 12 UTC إلى 21 الساعة 12 UTC
ريح 8 عقدة من الشمال/الشمال الشرقي
الرؤية 10 كم أو أكثر
غيوم قليلة على ارتفاع 800 قدم
غيوم متفرقة على ارتفاع 2400 قدم
نظرية الاحتمالات 30% :
مؤقت
من 20 الساعة 21 UTC إلى 21 الساعة 01 UTC
الرؤية: 7000 متر
غيوم قليلة على ارتفاع 1400 قدم
غيوم مفككة على ارتفاع 2600 قدم
زخات في الجوار
أصبح
من 21 الساعة 01 UTC إلى 21 الساعة 03 UTC
الرؤية 10 كم أو أكثر

TAF: MHTG 200925Z 2012/2112 02008KT 9999 FEW008 SCT024 TX24/2020Z TN16/2112Z PROB30 TEMPO 2021/2101 7000 VCSH FEW014 BKN026 BECMG 2101/2103 9999 NSW

أرصاد الطقس والتوقعات من أكثر من 4000 مطار (تقارير الطقس للمطار METAR والتنبؤ بالطقس بالمطارTAF).

المحطات المتاحة هي النقط الصفراء والحمراء على الخريطة.

حرك المؤشر فوق النقطة لمعرفة اسم المحطة.

ثم انقر لمعرفة أرصاد وتوقعات الطقس.

لتغيير الخارطة: اضغط على الأزرار الخضراء مع رمز الصليب الأسود للتكبير. على الزر الأخضر مع شرطة للتصغير، أو على الأسهم الخضراء للخرائط المجاورة.


METAR-TAF: